You are listening to:
EHAM Arrival (Primary) - Amsterdam, Netherlands

EHAM 190055Z 31003KT 9999 FEW027 BKN040 11/09 Q1029 NOSIG

If stream does not start automatically press the play button